Time;durP1;ratioP1;P1;durP2;ratioP2;P2;SDS_P1;SDS_P2;PMS_P1;PMS_P2;Temp;Humidity;BMP_temperature;BMP_pressure;BME280_temperature;BME280_humidity;BME280_pressure;Samples;Min_cycle;Max_cycle;Signal;HPM_P1;HPM_P2
2022/11/12 00:02:16;;;;;;;7.37;4.90;;;9.90;99.90;;;;;;4938368;29;20180;-78
2022/11/12 00:04:42;;;;;;;9.23;5.53;;;9.90;99.90;;;;;;4938467;29;20230;-78
2022/11/12 00:07:08;;;;;;;6.63;6.00;;;9.90;99.90;;;;;;4938278;29;20182;-77
2022/11/12 00:09:33;;;;;;;6.13;5.40;;;9.80;99.90;;;;;;4938310;29;20534;-83
2022/11/12 00:11:59;;;;;;;11.00;4.90;;;9.60;99.90;;;;;;4938237;29;20246;-80
2022/11/12 00:14:24;;;;;;;6.77;4.93;;;9.60;99.90;;;;;;4937843;29;20274;-82
2022/11/12 00:16:50;;;;;;;4.43;3.70;;;9.50;99.90;;;;;;4937953;29;20182;-80
2022/11/12 00:19:15;;;;;;;6.70;4.10;;;9.50;99.90;;;;;;4938138;29;20175;-79
2022/11/12 00:21:40;;;;;;;5.40;3.90;;;9.50;99.90;;;;;;4937947;29;20597;-79
2022/11/12 00:24:06;;;;;;;4.07;3.20;;;9.50;99.90;;;;;;4938076;29;20175;-79
2022/11/12 00:26:32;;;;;;;5.70;3.30;;;9.40;99.90;;;;;;4937903;29;20258;-79
2022/11/12 00:28:57;;;;;;;3.23;2.90;;;9.40;99.90;;;;;;4937926;29;20183;-79
2022/11/12 00:31:23;;;;;;;4.37;3.67;;;9.40;99.90;;;;;;4937607;29;20235;-79
2022/11/12 00:33:48;;;;;;;5.47;3.30;;;9.40;99.90;;;;;;4937822;29;20707;-79
2022/11/12 00:36:14;;;;;;;4.10;3.17;;;9.40;99.90;;;;;;4937794;29;20186;-79
2022/11/12 00:38:39;;;;;;;10.63;3.80;;;9.30;99.90;;;;;;4920616;29;20635;-80
2022/11/12 00:41:05;;;;;;;7.13;3.90;;;9.20;99.90;;;;;;4937778;29;20179;-77
2022/11/12 00:43:30;;;;;;;7.30;3.30;;;9.20;99.90;;;;;;4937568;29;20187;-77
2022/11/12 00:45:56;;;;;;;4.13;3.40;;;9.20;99.90;;;;;;4953800;29;20269;-77
2022/11/12 00:48:21;;;;;;;4.17;3.50;;;9.30;99.90;;;;;;4939495;29;20182;-77
2022/11/12 00:50:47;;;;;;;6.13;3.53;;;9.30;99.90;;;;;;4956759;29;20244;-82
2022/11/12 00:53:12;;;;;;;5.43;2.70;;;9.30;99.90;;;;;;4956664;29;20181;-82
2022/11/12 00:55:38;;;;;;;4.00;3.10;;;9.20;99.90;;;;;;4956475;29;20269;-82
2022/11/12 00:58:03;;;;;;;4.67;3.33;;;9.20;99.90;;;;;;4956412;28;20217;-82
2022/11/12 01:00:29;;;;;;;5.50;3.17;;;9.10;99.90;;;;;;4956370;29;20221;-81
2022/11/12 01:02:55;;;;;;;4.50;3.33;;;9.10;99.90;;;;;;4956494;29;20182;-81
2022/11/12 01:05:20;;;;;;;3.97;2.70;;;9.00;99.90;;;;;;4956349;29;20179;-81
2022/11/12 01:07:46;;;;;;;5.17;3.53;;;9.00;99.90;;;;;;4956301;29;20186;-81
2022/11/12 01:10:13;;;;;;;5.20;3.30;;;9.00;99.90;;;;;;4956306;29;20237;-81
2022/11/12 01:12:39;;;;;;;4.77;3.27;;;9.00;99.90;;;;;;4956116;29;20533;-80
2022/11/12 01:15:05;;;;;;;7.13;3.00;;;9.00;99.90;;;;;;4938934;29;20533;-80
2022/11/12 01:17:31;;;;;;;3.00;2.70;;;9.00;99.90;;;;;;4938826;29;20277;-82
2022/11/12 01:19:57;;;;;;;5.50;2.90;;;8.90;99.90;;;;;;4956086;29;20969;-82
2022/11/12 01:22:23;;;;;;;4.80;2.97;;;8.90;99.90;;;;;;4956095;29;20178;-81
2022/11/12 01:24:48;;;;;;;3.60;2.27;;;8.90;99.90;;;;;;4955913;29;20273;-82
2022/11/12 01:27:14;;;;;;;3.77;2.90;;;8.90;99.90;;;;;;4955982;29;20912;-82
2022/11/12 01:29:40;;;;;;;5.20;3.40;;;8.90;99.90;;;;;;4955883;29;20274;-82
2022/11/12 01:32:05;;;;;;;7.40;3.40;;;8.90;99.90;;;;;;4955719;28;20332;-82
2022/11/12 05:30:22;;;;;;;6.60;3.67;;;8.60;99.90;;;;;;5929021;23;20323;-72
2022/11/12 05:32:48;;;;;;;6.83;3.50;;;8.40;99.90;;;;;;4972650;28;20465;-72
2022/11/12 05:35:13;;;;;;;6.23;3.90;;;8.30;99.90;;;;;;4956963;28;20170;-73
2022/11/12 05:37:39;;;;;;;4.77;3.40;;;8.20;99.90;;;;;;4973938;28;20244;-72
2022/11/12 05:40:05;;;;;;;5.70;3.70;;;8.10;99.90;;;;;;4974163;28;20181;-72
2022/11/12 05:42:30;;;;;;;5.20;3.80;;;8.00;99.90;;;;;;4973913;28;20170;-72
2022/11/12 05:44:56;;;;;;;7.13;3.73;;;8.00;99.90;;;;;;4955759;28;20443;-72
2022/11/12 05:47:21;;;;;;;4.10;3.23;;;8.00;99.90;;;;;;4973880;28;20170;-72
2022/11/12 05:49:47;;;;;;;6.30;3.43;;;7.90;99.90;;;;;;4973684;28;20178;-72
2022/11/12 05:52:12;;;;;;;3.97;2.83;;;7.90;99.90;;;;;;4973825;28;20213;-72
2022/11/12 05:54:38;;;;;;;6.27;3.23;;;7.90;99.90;;;;;;4973719;28;20173;-72
2022/11/12 05:57:03;;;;;;;4.00;3.20;;;7.90;99.90;;;;;;4973762;28;20261;-71
2022/11/12 05:59:29;;;;;;;4.80;2.80;;;7.90;99.90;;;;;;4973841;28;20197;-72
2022/11/12 06:01:54;;;;;;;7.03;3.70;;;7.90;99.90;;;;;;4973744;28;20660;-71
2022/11/12 06:04:21;;;;;;;10.10;4.13;;;7.90;99.90;;;;;;4973599;28;20170;-71
2022/11/12 06:06:46;;;;;;;11.07;4.47;;;7.90;99.90;;;;;;4973500;28;20188;-71
2022/11/12 06:09:12;;;;;;;6.80;4.50;;;7.90;99.90;;;;;;4973658;28;20504;-71
2022/11/12 06:11:38;;;;;;;5.40;4.37;;;8.00;99.90;;;;;;4973405;28;20213;-71
2022/11/12 06:14:04;;;;;;;11.47;4.20;;;7.90;99.90;;;;;;4973683;28;20220;-71
2022/11/12 06:16:30;;;;;;;5.77;4.20;;;7.80;99.90;;;;;;4973392;28;20249;-72
2022/11/12 06:18:56;;;;;;;6.90;4.37;;;7.70;99.90;;;;;;4973696;28;20433;-72
2022/11/12 06:21:22;;;;;;;7.50;5.10;;;7.60;99.90;;;;;;4973152;28;20758;-71
2022/11/12 06:23:55;;;;;;;15.00;5.80;;;7.50;99.90;;;;;;4973533;28;20708;-71
2022/11/12 06:26:22;;;;;;;9.70;5.43;;;7.40;99.90;;;;;;4974289;28;20177;-72
2022/11/12 06:28:48;;;;;;;15.93;5.60;;;7.40;99.90;;;;;;4974136;28;20433;-71
2022/11/12 06:31:14;;;;;;;10.40;5.77;;;7.40;99.90;;;;;;4973985;28;20473;-71
2022/11/12 06:33:40;;;;;;;8.60;6.27;;;7.30;99.90;;;;;;4974332;28;20516;-71
2022/11/12 06:36:06;;;;;;;9.27;5.50;;;7.40;99.90;;;;;;4974367;28;20508;-71
2022/11/12 06:38:33;;;;;;;10.47;5.70;;;7.20;99.90;;;;;;4956712;28;20177;-71
2022/11/12 06:40:59;;;;;;;7.03;4.93;;;7.00;99.90;;;;;;4972960;28;20429;-71
2022/11/12 06:43:28;;;;;;;8.10;5.63;;;6.90;99.90;;;;;;4973906;28;20475;-70
2022/11/12 06:45:53;;;;;;;12.50;5.00;;;6.80;99.90;;;;;;4969569;28;20791;-70
2022/11/12 06:48:19;;;;;;;5.80;4.53;;;6.80;99.90;;;;;;4973024;28;20428;-70
2022/11/12 06:50:45;;;;;;;8.93;4.13;;;6.80;99.90;;;;;;4965736;28;20205;-70
2022/11/12 06:53:10;;;;;;;8.93;5.97;;;6.90;99.90;;;;;;4962690;28;20183;-71
2022/11/12 06:55:36;;;;;;;4.33;3.93;;;6.90;99.90;;;;;;4957722;28;20178;-71
2022/11/12 06:58:02;;;;;;;12.83;5.37;;;7.00;99.90;;;;;;4961229;28;20273;-72
2022/11/12 07:00:27;;;;;;;6.10;4.70;;;7.00;99.90;;;;;;4958258;29;20320;-72
2022/11/12 07:02:53;;;;;;;11.80;5.07;;;7.10;99.90;;;;;;4958604;29;20179;-72
2022/11/12 07:05:19;;;;;;;6.80;4.73;;;7.10;99.90;;;;;;4958649;29;20524;-72
2022/11/12 07:07:44;;;;;;;6.97;5.13;;;7.00;99.90;;;;;;4941195;29;20563;-72
2022/11/12 07:10:10;;;;;;;5.83;4.57;;;7.00;99.90;;;;;;4958326;29;20175;-72
2022/11/12 07:12:35;;;;;;;9.27;5.70;;;7.00;99.90;;;;;;4958334;29;20193;-72
2022/11/12 07:15:01;;;;;;;6.33;5.00;;;7.10;99.90;;;;;;4958378;29;20261;-72
2022/11/12 07:17:26;;;;;;;15.73;5.00;;;7.10;99.90;;;;;;4958326;29;20269;-73
2022/11/12 07:19:52;;;;;;;7.53;4.40;;;7.20;99.90;;;;;;4958365;29;20605;-77
2022/11/12 07:22:17;;;;;;;6.87;4.53;;;7.40;99.90;;;;;;4957785;29;20218;-79
2022/11/12 07:24:43;;;;;;;7.63;5.07;;;7.40;99.90;;;;;;4958142;29;20548;-71
2022/11/12 07:27:08;;;;;;;11.53;5.27;;;7.50;99.90;;;;;;4958034;29;20700;-71
2022/11/12 07:29:34;;;;;;;7.10;4.90;;;7.60;99.90;;;;;;4957706;29;20216;-73
2022/11/12 07:31:59;;;;;;;8.73;4.37;;;7.70;99.90;;;;;;4940369;29;20697;-73
2022/11/12 07:34:25;;;;;;;6.57;4.90;;;7.70;99.90;;;;;;4940786;29;20432;-71
2022/11/12 07:36:50;;;;;;;5.80;4.90;;;7.90;99.90;;;;;;4958043;29;20182;-72
2022/11/12 07:39:17;;;;;;;6.90;4.70;;;8.10;99.90;;;;;;4940742;29;20189;-72
2022/11/12 07:41:43;;;;;;;8.10;5.40;;;8.30;99.90;;;;;;4957657;29;20304;-72
2022/11/12 07:44:08;;;;;;;13.33;5.20;;;8.50;99.90;;;;;;4957944;29;20557;-72
2022/11/12 07:46:34;;;;;;;7.20;5.17;;;8.60;99.90;;;;;;4957644;29;20265;-73
2022/11/12 07:49:00;;;;;;;9.27;5.50;;;8.80;99.90;;;;;;4957339;29;20171;-72
2022/11/12 07:51:28;;;;;;;9.60;5.40;;;8.80;99.90;;;;;;4956906;29;20182;-72
2022/11/12 07:53:55;;;;;;;7.63;5.10;;;8.90;99.90;;;;;;4956825;29;20230;-72
2022/11/12 07:56:23;;;;;;;8.17;4.60;;;8.90;99.90;;;;;;4956671;29;20462;-72
2022/11/12 07:58:49;;;;;;;9.90;5.30;;;9.00;99.90;;;;;;4956679;29;20422;-71
2022/11/12 08:01:23;;;;;;;8.60;4.90;;;9.10;99.90;;;;;;4956628;29;20477;-71
2022/11/12 08:03:48;;;;;;;7.87;4.80;;;9.10;99.90;;;;;;4956684;29;20430;-71
2022/11/12 08:06:14;;;;;;;7.27;4.93;;;9.20;99.90;;;;;;4956730;29;20434;-73
2022/11/12 08:08:39;;;;;;;5.93;5.17;;;9.20;99.90;;;;;;4938450;29;20697;-73
2022/11/12 08:11:05;;;;;;;5.03;4.50;;;9.20;99.90;;;;;;4955544;29;20225;-74
2022/11/12 08:13:30;;;;;;;7.30;4.73;;;9.40;99.90;;;;;;4956592;29;20184;-72
2022/11/12 08:15:57;;;;;;;6.63;4.60;;;9.40;99.90;;;;;;4956384;29;20189;-73
2022/11/12 08:18:23;;;;;;;8.03;4.70;;;9.70;99.90;;;;;;4956670;29;20174;-73
2022/11/12 08:20:49;;;;;;;6.07;4.37;;;9.90;99.90;;;;;;4956442;29;21032;-73
2022/11/12 08:23:15;;;;;;;7.20;4.63;;;10.00;99.90;;;;;;4956374;29;20512;-73
2022/11/12 08:25:40;;;;;;;5.47;3.77;;;10.20;99.90;;;;;;4956428;29;20713;-74
2022/11/12 08:28:06;;;;;;;8.47;5.30;;;10.30;99.90;;;;;;4956417;29;20217;-73
2022/11/12 08:30:31;;;;;;;7.93;5.13;;;10.50;99.90;;;;;;4956010;29;20183;-73
2022/11/12 08:32:58;;;;;;;10.83;5.87;;;10.60;99.90;;;;;;4956364;29;20209;-73
2022/11/12 08:35:26;;;;;;;11.90;5.30;;;10.70;99.90;;;;;;4956206;29;20270;-74
2022/11/12 08:37:58;;;;;;;6.40;3.77;;;10.80;99.90;;;;;;4956307;29;20790;-74
2022/11/12 08:40:25;;;;;;;7.50;3.97;;;10.90;99.90;;;;;;4956215;29;20457;-74
2022/11/12 08:43:08;;;;;;;4.20;3.80;;;11.10;99.90;;;;;;4956140;29;20446;-73
2022/11/12 08:45:35;;;;;;;4.70;3.37;;;11.30;99.90;;;;;;4974032;28;20845;-73
2022/11/12 08:48:03;;;;;;;6.90;4.10;;;11.50;99.90;;;;;;4974587;28;20520;-72
2022/11/12 08:50:29;;;;;;;5.60;4.50;;;11.60;99.90;;;;;;4975312;28;20437;-73
2022/11/12 08:53:03;;;;;;;5.50;4.73;;;11.80;99.90;;;;;;4969852;28;20445;-73
2022/11/12 08:55:30;;;;;;;8.30;4.20;;;11.90;99.90;;;;;;4955286;29;20436;-73
2022/11/12 08:58:00;;;;;;;4.80;3.70;;;12.10;99.90;;;;;;4955565;29;20967;-72
2022/11/12 09:00:30;;;;;;;5.40;4.37;;;12.30;99.90;;;;;;4955511;29;20433;-72
2022/11/12 09:02:58;;;;;;;8.00;5.50;;;12.40;99.90;;;;;;4955362;29;20431;-71
2022/11/12 09:05:23;;;;;;;7.90;4.53;;;12.50;99.90;;;;;;4955164;29;20577;-75
2022/11/12 09:07:56;;;;;;;8.90;5.60;;;12.60;99.90;;;;;;4938254;29;20516;-76
2022/11/12 09:10:23;;;;;;;8.63;5.10;;;12.60;99.90;;;;;;4955415;29;20277;-72
2022/11/12 09:12:52;;;;;;;5.63;4.63;;;12.70;99.90;;;;;;4955331;29;20441;-71
2022/11/12 09:15:19;;;;;;;5.73;4.90;;;12.70;99.90;;;;;;4955817;28;20422;-70
2022/11/12 09:17:45;;;;;;;7.70;4.57;;;12.60;99.90;;;;;;4955165;29;20486;-73
2022/11/12 09:20:10;;;;;;;9.50;5.57;;;12.70;99.90;;;;;;4955282;28;20430;-72
2022/11/12 09:22:36;;;;;;;8.43;5.37;;;12.70;99.90;;;;;;4955147;29;20305;-72
2022/11/12 09:25:02;;;;;;;5.87;5.17;;;12.60;99.90;;;;;;4955128;29;20174;-71
2022/11/12 09:27:28;;;;;;;9.50;6.47;;;12.60;99.90;;;;;;4957202;28;20720;-74
2022/11/12 09:29:54;;;;;;;8.57;5.70;;;12.60;99.90;;;;;;4957622;28;20193;-79
2022/11/12 09:32:19;;;;;;;9.30;5.97;;;12.50;99.90;;;;;;4959697;28;20882;-72
2022/11/12 09:34:45;;;;;;;7.97;5.53;;;12.50;99.90;;;;;;4964266;28;20268;-72
2022/11/12 09:37:10;;;;;;;9.37;6.50;;;12.40;99.90;;;;;;4963974;28;20178;-75
2022/11/12 09:39:36;;;;;;;7.83;5.67;;;12.40;99.90;;;;;;4962501;28;20182;-74
2022/11/12 09:42:13;;;;;;;6.70;6.00;;;12.40;99.90;;;;;;4970009;28;20220;-74
2022/11/12 09:44:41;;;;;;;8.80;6.37;;;12.50;99.90;;;;;;4967969;28;20186;-72
2022/11/12 09:47:24;;;;;;;8.93;7.57;;;12.50;99.90;;;;;;4962752;28;20465;-72
2022/11/12 09:49:58;;;;;;;11.10;6.27;;;12.50;99.90;;;;;;4961552;28;20435;-71
2022/11/12 09:52:27;;;;;;;15.43;7.60;;;12.60;99.90;;;;;;4963563;28;20446;-73
2022/11/12 09:55:16;;;;;;;9.03;6.77;;;12.70;99.90;;;;;;4973775;28;20835;-76
2022/11/12 09:57:42;;;;;;;10.30;7.07;;;12.70;99.90;;;;;;4973866;28;20960;-76
2022/11/12 10:00:17;;;;;;;9.37;7.30;;;12.80;99.90;;;;;;4973907;28;20465;-76
2022/11/12 10:03:06;;;;;;;8.90;6.80;;;12.90;99.90;;;;;;4973718;28;20310;-79
2022/11/12 10:06:00;;;;;;;9.60;5.60;;;12.90;99.90;;;;;;4973667;28;20835;-82
2022/11/12 10:08:48;;;;;;;11.77;6.97;;;13.00;99.90;;;;;;4973692;28;20437;-74
2022/11/12 10:11:30;;;;;;;10.20;6.30;;;13.10;99.90;;;;;;4973604;28;20433;-72
2022/11/12 10:14:12;;;;;;;8.10;6.40;;;13.10;99.90;;;;;;4973648;28;20421;-72
2022/11/12 10:17:09;;;;;;;12.30;7.80;;;13.20;99.90;;;;;;4973597;28;20788;-73
2022/11/12 10:19:55;;;;;;;10.00;6.90;;;13.30;99.90;;;;;;4923880;28;20512;-72
2022/11/12 10:22:41;;;;;;;10.60;7.33;;;13.30;99.90;;;;;;4973294;28;20484;-73
2022/11/12 10:25:16;;;;;;;13.33;8.07;;;13.40;99.90;;;;;;4973564;28;20425;-73
2022/11/12 10:27:42;;;;;;;16.50;7.83;;;13.40;99.90;;;;;;4973345;28;20487;-70
2022/11/12 10:30:20;;;;;;;13.10;7.60;;;13.50;99.90;;;;;;4973012;28;20429;-71
2022/11/12 10:32:47;;;;;;;8.30;7.30;;;13.60;99.90;;;;;;4973144;28;20436;-71
2022/11/12 10:35:17;;;;;;;11.43;8.60;;;13.60;99.90;;;;;;4972869;28;20421;-71
2022/11/12 10:38:06;;;;;;;12.77;6.90;;;13.70;99.90;;;;;;4973186;28;20421;-73
2022/11/12 10:40:38;;;;;;;6.50;5.30;;;13.80;99.90;;;;;;4972882;28;20426;-72
2022/11/12 10:43:19;;;;;;;11.23;5.77;;;13.90;99.90;;;;;;4973310;28;20437;-75
2022/11/12 10:45:46;;;;;;;7.47;5.10;;;14.00;99.90;;;;;;4973132;28;20436;-72
2022/11/12 10:48:31;;;;;;;6.77;5.00;;;14.10;99.90;;;;;;4973039;28;20468;-72
2022/11/12 10:50:57;;;;;;;7.40;5.30;;;14.20;99.90;;;;;;4973118;28;20428;-71
2022/11/12 10:53:35;;;;;;;9.37;5.70;;;14.20;99.90;;;;;;4973021;28;20440;-71
2022/11/12 10:56:03;;;;;;;10.27;6.27;;;14.30;99.90;;;;;;4973147;28;20421;-78
2022/11/12 10:58:29;;;;;;;13.03;6.53;;;14.40;99.90;;;;;;4973102;28;20438;-72
2022/11/12 11:01:02;;;;;;;12.00;7.60;;;14.50;99.90;;;;;;4972950;28;20468;-72
2022/11/12 11:03:35;;;;;;;10.97;7.43;;;14.50;99.90;;;;;;4973045;28;20508;-72
2022/11/12 11:06:04;;;;;;;10.67;5.33;;;14.60;99.90;;;;;;4973062;28;20500;-70
2022/11/12 11:08:38;;;;;;;12.63;5.80;;;14.60;99.90;;;;;;4973059;28;20434;-71
2022/11/12 11:11:16;;;;;;;24.47;8.67;;;14.70;99.90;;;;;;4972939;28;20421;-71
2022/11/12 11:13:43;;;;;;;12.50;6.93;;;14.80;99.90;;;;;;4973063;28;20421;-71
2022/11/12 11:16:28;;;;;;;16.30;7.10;;;14.80;99.90;;;;;;4973155;28;20429;-71
2022/11/12 11:19:03;;;;;;;12.93;6.43;;;14.90;99.90;;;;;;4972953;28;20429;-72
2022/11/12 11:21:47;;;;;;;13.50;8.40;;;15.00;99.90;;;;;;4972949;28;20472;-71
2022/11/12 11:24:38;;;;;;;8.70;5.40;;;15.10;99.90;;;;;;4972909;28;20855;-69
2022/11/12 11:27:29;;;;;;;10.20;6.40;;;15.20;99.90;;;;;;4972970;28;20436;-73
2022/11/12 11:30:14;;;;;;;9.20;4.70;;;15.40;99.90;;;;;;4973047;28;20876;-72
2022/11/12 11:33:17;;;;;;;11.70;5.67;;;15.60;99.90;;;;;;4972591;28;20556;-72
2022/11/12 11:36:18;;;;;;;21.57;6.67;;;15.70;99.90;;;;;;4972868;28;20954;-71
2022/11/12 11:38:57;;;;;;;11.27;6.03;;;15.90;99.90;;;;;;4968109;28;20516;-72
2022/11/12 11:41:51;;;;;;;8.30;5.70;;;16.00;99.90;;;;;;4973316;28;20464;-72
2022/11/12 11:44:45;;;;;;;6.47;5.43;;;16.10;99.90;;;;;;4976531;28;20444;-72
2022/11/12 11:47:40;;;;;;;9.70;7.10;;;16.30;99.90;;;;;;4977219;28;20491;-73
2022/11/12 11:50:21;;;;;;;17.27;6.90;;;16.30;99.90;;;;;;4977073;28;20448;-73
2022/11/12 11:53:07;;;;;;;12.30;6.97;;;16.40;99.90;;;;;;4977060;28;20417;-71
2022/11/12 11:55:42;;;;;;;30.20;7.77;;;16.40;99.90;;;;;;4976811;28;20433;-71
2022/11/12 11:58:27;;;;;;;16.92;7.30;;;16.50;99.90;;;;;;4976861;28;20838;-74
2022/11/12 12:01:01;;;;;;;13.03;7.97;;;16.50;99.90;;;;;;4976849;28;20268;-73
2022/11/12 12:03:40;;;;;;;7.60;6.27;;;16.50;99.90;;;;;;4976621;28;20447;-74
2022/11/12 12:06:28;;;;;;;7.20;5.90;;;16.50;99.90;;;;;;4959577;28;20429;-71
2022/11/12 12:09:06;;;;;;;8.77;6.60;;;16.50;99.90;;;;;;4976953;28;20517;-70
2022/11/12 12:11:50;;;;;;;10.83;5.90;;;16.50;99.90;;;;;;4976769;28;20801;-73
2022/11/12 12:14:46;;;;;;;12.00;7.10;;;16.60;99.90;;;;;;4958351;28;20520;-72
2022/11/12 12:17:39;;;;;;;8.53;6.37;;;16.50;99.90;;;;;;4962449;28;20426;-75
2022/11/12 12:20:19;;;;;;;10.67;7.20;;;16.50;99.90;;;;;;4957312;29;20437;-81
2022/11/12 12:22:50;;;;;;;9.87;7.80;;;16.40;99.90;;;;;;4940115;29;20523;-77
2022/11/12 12:25:24;;;;;;;10.10;8.00;;;16.40;99.90;;;;;;4957259;29;20453;-75
2022/11/12 12:28:04;;;;;;;10.57;8.03;;;16.40;99.90;;;;;;4957325;29;20492;-75
2022/11/12 12:30:38;;;;;;;12.80;9.33;;;16.40;99.90;;;;;;4939575;29;20422;-70
2022/11/12 12:33:15;;;;;;;11.00;8.83;;;16.30;99.90;;;;;;4957458;29;20577;-68
2022/11/12 12:36:01;;;;;;;13.53;8.70;;;16.30;99.90;;;;;;4957005;29;20430;-69
2022/11/12 12:38:31;;;;;;;11.20;8.60;;;16.30;99.90;;;;;;4957033;29;20929;-69
2022/11/12 12:41:12;;;;;;;14.40;9.20;;;16.30;99.90;;;;;;4964684;28;20461;-72
2022/11/12 12:43:44;;;;;;;14.07;7.83;;;16.20;99.90;;;;;;4949158;28;21007;-71
2022/11/12 12:46:13;;;;;;;11.23;8.90;;;16.20;99.90;;;;;;4966631;28;20464;-72
2022/11/12 12:48:44;;;;;;;12.53;9.67;;;16.20;99.90;;;;;;4966355;28;20500;-71
2022/11/12 12:51:10;;;;;;;15.20;10.10;;;16.20;99.90;;;;;;4967929;28;20437;-72
2022/11/12 12:53:36;;;;;;;13.50;8.93;;;16.10;99.90;;;;;;4967320;28;20814;-72
2022/11/12 12:56:31;;;;;;;13.50;8.70;;;16.10;99.90;;;;;;4966990;28;20521;-71
2022/11/12 12:59:02;;;;;;;12.87;8.67;;;16.10;99.90;;;;;;4966655;28;20437;-71
2022/11/12 13:01:31;;;;;;;13.30;9.43;;;16.10;99.90;;;;;;4965415;28;20478;-71
2022/11/12 13:04:07;;;;;;;14.20;11.20;;;16.10;99.90;;;;;;4956488;29;20422;-73
2022/11/12 13:06:34;;;;;;;15.47;11.50;;;16.10;99.90;;;;;;4956979;28;20434;-73
2022/11/12 13:09:11;;;;;;;17.33;11.47;;;16.10;99.90;;;;;;4956133;29;20418;-72
2022/11/12 13:14:35;;;;;;;15.37;10.57;;;16.10;99.90;;;;;;4967386;28;20448;-72
2022/11/12 13:17:07;;;;;;;18.10;11.03;;;16.10;99.90;;;;;;4965711;28;20430;-72
2022/11/12 13:19:52;;;;;;;20.00;11.43;;;16.10;99.90;;;;;;4964847;28;20434;-72
2022/11/12 13:22:18;;;;;;;16.27;11.43;;;16.10;99.90;;;;;;4965444;28;20557;-72
2022/11/12 13:25:12;;;;;;;10.77;9.57;;;16.10;99.90;;;;;;4972619;28;20989;-72
2022/11/12 13:27:43;;;;;;;13.00;8.97;;;16.10;99.90;;;;;;4968897;28;20197;-72
2022/11/12 13:30:12;;;;;;;15.10;9.70;;;16.10;99.90;;;;;;4962901;28;20493;-71
2022/11/12 13:33:06;;;;;;;15.00;7.70;;;16.10;99.90;;;;;;4961467;28;20465;-72
2022/11/12 13:35:35;;;;;;;11.97;8.53;;;16.20;99.90;;;;;;4974934;28;20767;-72
2022/11/12 13:38:12;;;;;;;12.80;9.03;;;16.20;99.90;;;;;;4975183;28;20480;-71
2022/11/12 13:40:49;;;;;;;14.47;8.67;;;16.20;99.90;;;;;;4974940;28;20436;-73
2022/11/12 13:43:14;;;;;;;10.83;8.57;;;16.20;99.90;;;;;;4954941;29;20448;-79
2022/11/12 13:45:46;;;;;;;13.10;10.53;;;16.10;99.90;;;;;;4954796;29;20871;-77
2022/11/12 13:48:32;;;;;;;12.87;7.87;;;16.10;99.90;;;;;;4954736;29;20616;-73
2022/11/12 13:51:01;;;;;;;15.00;8.70;;;16.00;99.90;;;;;;4954805;29;20422;-75
2022/11/12 13:53:30;;;;;;;13.43;8.43;;;16.00;99.90;;;;;;4967455;28;20838;-75
2022/11/12 13:55:56;;;;;;;11.43;6.23;;;16.00;99.90;;;;;;4973650;28;20436;-75
2022/11/12 13:58:30;;;;;;;9.47;6.00;;;16.00;99.90;;;;;;4973936;28;20947;-75
2022/11/12 14:01:06;;;;;;;11.90;8.07;;;16.00;99.90;;;;;;4956353;28;20659;-76
2022/11/12 14:03:34;;;;;;;12.67;7.40;;;16.00;99.90;;;;;;4969361;28;20436;-76
2022/11/12 14:06:05;;;;;;;11.43;6.13;;;15.90;99.90;;;;;;4963693;28;20430;-75
2022/11/12 14:08:57;;;;;;;8.77;6.63;;;15.90;99.90;;;;;;4963289;28;20433;-76
2022/11/12 14:11:57;;;;;;;11.40;6.93;;;15.90;99.90;;;;;;4956035;28;20483;-76
2022/11/12 14:14:31;;;;;;;8.30;6.50;;;15.90;99.90;;;;;;4876382;29;20437;-77
2022/11/12 14:17:00;;;;;;;6.70;5.00;;;15.80;99.90;;;;;;4950122;28;20437;-77
2022/11/12 14:19:57;;;;;;;6.43;5.70;;;15.80;99.90;;;;;;4962427;28;20525;-75
2022/11/12 14:22:23;;;;;;;9.10;6.10;;;15.90;99.90;;;;;;4903996;28;20481;-76
2022/11/12 14:24:57;;;;;;;6.80;5.73;;;15.90;99.90;;;;;;4970294;28;20460;-75
2022/11/12 14:27:34;;;;;;;6.63;5.43;;;15.90;99.90;;;;;;4965245;28;20546;-76
2022/11/12 14:30:30;;;;;;;11.13;6.47;;;15.80;99.90;;;;;;4973099;28;20523;-77
2022/11/12 14:33:09;;;;;;;7.53;5.30;;;15.80;99.90;;;;;;4953130;28;20477;-76
2022/11/12 14:35:37;;;;;;;9.63;5.40;;;15.70;99.90;;;;;;4973239;28;20421;-75
2022/11/12 14:38:03;;;;;;;7.93;4.60;;;15.70;99.90;;;;;;4973422;28;20464;-80
2022/11/12 14:40:32;;;;;;;8.10;4.60;;;15.70;99.90;;;;;;4973273;28;20488;-81
2022/11/12 14:42:58;;;;;;;5.27;3.97;;;15.70;99.90;;;;;;4973356;28;21056;-78
2022/11/12 14:45:23;;;;;;;7.70;4.43;;;15.70;99.90;;;;;;4956002;28;20433;-80
2022/11/12 14:47:51;;;;;;;5.60;4.13;;;15.70;99.90;;;;;;4973202;28;20189;-79
2022/11/12 14:50:29;;;;;;;7.93;4.70;;;15.70;99.90;;;;;;4961843;28;20668;-78
2022/11/12 14:53:01;;;;;;;8.07;5.03;;;15.70;99.90;;;;;;4962450;28;20444;-80
2022/11/12 14:55:31;;;;;;;6.60;5.47;;;15.60;99.90;;;;;;4962990;28;20790;-80
2022/11/12 14:57:58;;;;;;;10.00;5.33;;;15.60;99.90;;;;;;4962201;28;20435;-81
2022/11/12 15:00:29;;;;;;;14.83;4.67;;;15.60;99.90;;;;;;4965006;28;20948;-83
2022/11/12 15:03:00;;;;;;;10.83;5.40;;;15.50;99.90;;;;;;4963734;28;20473;-77
2022/11/12 15:05:29;;;;;;;7.53;5.57;;;15.50;99.90;;;;;;4961304;28;20425;-76
2022/11/12 15:08:10;;;;;;;6.40;4.77;;;15.50;99.90;;;;;;4963338;28;20465;-77
2022/11/12 15:10:43;;;;;;;6.80;5.73;;;15.40;99.90;;;;;;4963364;28;20422;-77
2022/11/12 15:13:13;;;;;;;8.63;6.00;;;15.30;99.90;;;;;;4962667;28;20466;-77
2022/11/12 15:15:48;;;;;;;6.93;5.10;;;15.30;99.90;;;;;;4961956;28;20421;-76
2022/11/12 15:18:24;;;;;;;9.67;6.13;;;15.30;99.90;;;;;;4966453;28;20504;-78
2022/11/12 15:21:35;;;;;;;7.07;4.30;;;15.30;99.90;;;;;;4974481;28;20528;-75
2022/11/12 15:24:11;;;;;;;6.93;5.77;;;15.30;99.90;;;;;;4971663;28;20504;-78
2022/11/12 15:26:43;;;;;;;4.83;4.37;;;15.20;99.90;;;;;;4968138;28;20523;-79
2022/11/12 15:29:32;;;;;;;5.73;5.00;;;15.20;99.90;;;;;;4966340;28;20440;-80
2022/11/12 15:32:22;;;;;;;7.00;5.70;;;15.10;99.90;;;;;;4964625;28;20476;-77
2022/11/12 15:34:49;;;;;;;10.97;6.47;;;15.00;99.90;;;;;;4956678;29;20488;-77
2022/11/12 15:37:17;;;;;;;8.43;6.80;;;15.00;99.90;;;;;;4959244;28;20434;-76
2022/11/12 15:39:53;;;;;;;7.70;6.80;;;14.90;99.90;;;;;;4965304;28;20433;-76
2022/11/12 15:42:35;;;;;;;11.77;6.20;;;14.80;99.90;;;;;;4965879;28;20524;-80
2022/11/12 15:45:03;;;;;;;11.50;6.30;;;14.80;99.90;;;;;;4965334;28;20437;-77
2022/11/12 15:47:29;;;;;;;10.73;6.30;;;14.70;99.90;;;;;;4958176;28;20862;-78
2022/11/12 15:49:57;;;;;;;8.90;5.40;;;14.60;99.90;;;;;;4960100;28;20517;-78
2022/11/12 15:52:23;;;;;;;11.53;5.80;;;14.50;99.90;;;;;;4955867;29;20426;-76
2022/11/12 15:54:49;;;;;;;8.73;6.27;;;14.40;99.90;;;;;;4955781;29;20935;-75
2022/11/12 15:57:17;;;;;;;6.77;5.13;;;14.30;99.90;;;;;;4956424;29;20635;-75
2022/11/12 15:59:44;;;;;;;8.47;5.40;;;14.20;99.90;;;;;;4956231;29;20422;-72
2022/11/12 16:02:13;;;;;;;13.07;5.50;;;14.10;99.90;;;;;;4957500;28;20480;-73
2022/11/12 16:04:39;;;;;;;16.03;5.93;;;14.00;99.90;;;;;;4972943;28;20436;-75
2022/11/12 16:07:05;;;;;;;10.03;6.83;;;13.90;99.90;;;;;;4975282;28;20441;-76
2022/11/12 16:09:32;;;;;;;12.70;8.17;;;13.90;99.90;;;;;;4975881;28;20218;-76
2022/11/12 16:11:59;;;;;;;14.47;7.50;;;13.80;99.90;;;;;;4975903;28;20878;-76
2022/11/12 16:14:25;;;;;;;8.70;6.63;;;13.70;99.90;;;;;;4967236;28;20489;-75
2022/11/12 16:16:51;;;;;;;12.70;8.17;;;13.70;99.90;;;;;;4964645;28;20468;-74
2022/11/12 16:19:17;;;;;;;13.20;9.40;;;13.60;99.90;;;;;;4966882;28;20798;-75
2022/11/12 16:21:42;;;;;;;16.07;10.40;;;13.60;99.90;;;;;;4967023;28;20265;-73
2022/11/12 16:24:08;;;;;;;13.97;11.10;;;13.50;99.90;;;;;;4965693;28;20286;-76
2022/11/12 16:26:35;;;;;;;21.13;14.47;;;13.50;99.90;;;;;;4966944;28;20265;-78
2022/11/12 16:29:01;;;;;;;24.63;16.10;;;13.40;99.90;;;;;;4965343;28;20178;-75
2022/11/12 16:31:26;;;;;;;21.40;14.83;;;13.30;99.90;;;;;;4963055;28;20996;-75
2022/11/12 16:33:52;;;;;;;24.97;16.87;;;13.20;99.90;;;;;;4964496;28;20244;-76
2022/11/12 16:36:18;;;;;;;23.77;17.90;;;13.10;99.90;;;;;;4965517;28;20193;-75
2022/11/12 16:38:45;;;;;;;20.97;15.63;;;13.10;99.90;;;;;;4947352;28;20265;-75
2022/11/12 16:41:12;;;;;;;27.13;15.60;;;13.00;99.90;;;;;;4966442;28;20277;-75
2022/11/12 16:43:38;;;;;;;18.90;12.90;;;13.00;99.90;;;;;;4963832;28;20853;-75
2022/11/12 16:46:21;;;;;;;18.60;12.90;;;12.90;99.90;;;;;;4965878;28;20434;-75
2022/11/12 16:48:47;;;;;;;13.93;10.73;;;12.80;99.90;;;;;;4960055;28;20508;-75
2022/11/12 16:51:17;;;;;;;12.40;9.43;;;12.80;99.90;;;;;;4975050;28;20501;-75
2022/11/12 16:53:43;;;;;;;11.50;7.63;;;12.70;99.90;;;;;;4973449;28;20205;-75
2022/11/12 16:56:15;;;;;;;7.43;6.73;;;12.70;99.90;;;;;;4965549;28;20425;-75
2022/11/12 16:58:40;;;;;;;11.17;6.43;;;12.60;99.90;;;;;;4965643;28;20472;-75
2022/11/12 17:01:09;;;;;;;8.70;6.10;;;12.60;99.90;;;;;;4963934;28;21065;-75
2022/11/12 17:03:35;;;;;;;9.00;7.27;;;12.60;99.90;;;;;;4964366;28;20193;-75
2022/11/12 17:06:01;;;;;;;10.60;6.57;;;12.50;99.90;;;;;;4965751;28;20768;-77